sensor_id;sensor_type;location;lat;lon;timestamp;P1;durP1;ratioP1;P2;durP2;ratioP2
50649;SDS011;36621;60.058;30.346;2023-07-31T00:01:51;105.72;;;17.35;;
50649;SDS011;36621;60.058;30.346;2023-07-31T00:09:24;85.97;;;15.63;;
50649;SDS011;36621;60.058;30.346;2023-07-31T00:16:56;57.33;;;13.68;;
50649;SDS011;36621;60.058;30.346;2023-07-31T00:24:29;62.45;;;14.10;;
50649;SDS011;36621;60.058;30.346;2023-07-31T00:32:01;22.80;;;9.98;;
50649;SDS011;36621;60.058;30.346;2023-07-31T00:39:35;34.17;;;11.00;;
50649;SDS011;36621;60.058;30.346;2023-07-31T00:47:07;17.73;;;10.43;;
50649;SDS011;36621;60.058;30.346;2023-07-31T00:54:40;18.85;;;10.30;;
50649;SDS011;36621;60.058;30.346;2023-07-31T01:02:13;16.23;;;10.13;;
50649;SDS011;36621;60.058;30.346;2023-07-31T01:09:47;17.27;;;11.55;;
50649;SDS011;36621;60.058;30.346;2023-07-31T01:17:29;21.25;;;11.20;;
50649;SDS011;36621;60.058;30.346;2023-07-31T01:25:06;26.00;;;12.13;;
50649;SDS011;36621;60.058;30.346;2023-07-31T01:32:55;28.23;;;12.52;;
50649;SDS011;36621;60.058;30.346;2023-07-31T01:40:29;22.92;;;10.77;;
50649;SDS011;36621;60.058;30.346;2023-07-31T01:48:01;21.05;;;11.40;;
50649;SDS011;36621;60.058;30.346;2023-07-31T01:55:34;15.27;;;9.07;;
50649;SDS011;36621;60.058;30.346;2023-07-31T02:03:07;14.55;;;9.68;;
50649;SDS011;36621;60.058;30.346;2023-07-31T02:10:39;12.65;;;8.25;;
50649;SDS011;36621;60.058;30.346;2023-07-31T02:18:12;14.60;;;8.00;;
50649;SDS011;36621;60.058;30.346;2023-07-31T02:25:44;13.23;;;7.90;;
50649;SDS011;36621;60.058;30.346;2023-07-31T02:33:17;14.63;;;7.28;;
50649;SDS011;36621;60.058;30.346;2023-07-31T02:40:51;11.50;;;7.43;;
50649;SDS011;36621;60.058;30.346;2023-07-31T02:48:24;11.95;;;6.95;;
50649;SDS011;36621;60.058;30.346;2023-07-31T02:55:56;12.32;;;7.05;;
50649;SDS011;36621;60.058;30.346;2023-07-31T03:03:29;9.25;;;6.72;;
50649;SDS011;36621;60.058;30.346;2023-07-31T03:11:02;12.93;;;7.13;;
50649;SDS011;36621;60.058;30.346;2023-07-31T03:18:35;11.15;;;6.63;;
50649;SDS011;36621;60.058;30.346;2023-07-31T03:26:09;22.13;;;7.75;;
50649;SDS011;36621;60.058;30.346;2023-07-31T03:33:42;20.65;;;8.00;;
50649;SDS011;36621;60.058;30.346;2023-07-31T03:41:14;17.05;;;7.20;;
50649;SDS011;36621;60.058;30.346;2023-07-31T03:48:50;16.50;;;7.35;;
50649;SDS011;36621;60.058;30.346;2023-07-31T03:56:22;18.63;;;7.60;;
50649;SDS011;36621;60.058;30.346;2023-07-31T04:03:56;21.35;;;7.47;;
50649;SDS011;36621;60.058;30.346;2023-07-31T04:11:28;25.90;;;8.80;;
50649;SDS011;36621;60.058;30.346;2023-07-31T04:19:01;21.27;;;7.60;;
50649;SDS011;36621;60.058;30.346;2023-07-31T04:26:33;16.98;;;7.35;;
50649;SDS011;36621;60.058;30.346;2023-07-31T04:34:06;24.00;;;7.18;;
50649;SDS011;36621;60.058;30.346;2023-07-31T04:41:39;12.02;;;5.25;;
50649;SDS011;36621;60.058;30.346;2023-07-31T04:49:12;17.23;;;5.57;;
50649;SDS011;36621;60.058;30.346;2023-07-31T04:56:44;10.50;;;5.00;;
50649;SDS011;36621;60.058;30.346;2023-07-31T05:04:17;10.48;;;3.90;;
50649;SDS011;36621;60.058;30.346;2023-07-31T05:11:50;21.17;;;7.13;;
50649;SDS011;36621;60.058;30.346;2023-07-31T05:19:23;18.15;;;6.32;;
50649;SDS011;36621;60.058;30.346;2023-07-31T05:26:55;10.45;;;4.10;;
50649;SDS011;36621;60.058;30.346;2023-07-31T05:34:28;9.32;;;3.30;;
50649;SDS011;36621;60.058;30.346;2023-07-31T05:42:01;7.23;;;2.83;;
50649;SDS011;36621;60.058;30.346;2023-07-31T05:49:36;4.40;;;2.05;;
50649;SDS011;36621;60.058;30.346;2023-07-31T05:57:15;6.25;;;2.30;;
50649;SDS011;36621;60.058;30.346;2023-07-31T06:23:05;4.25;;;1.98;;
50649;SDS011;36621;60.058;30.346;2023-07-31T06:38:23;7.90;;;2.17;;
50649;SDS011;36621;60.058;30.346;2023-07-31T06:46:04;3.95;;;2.50;;
50649;SDS011;36621;60.058;30.346;2023-07-31T06:53:38;4.10;;;2.38;;
50649;SDS011;36621;60.058;30.346;2023-07-31T07:01:11;5.88;;;2.42;;
50649;SDS011;36621;60.058;30.346;2023-07-31T07:08:43;4.47;;;2.20;;
50649;SDS011;36621;60.058;30.346;2023-07-31T07:16:16;4.13;;;2.00;;
50649;SDS011;36621;60.058;30.346;2023-07-31T18:58:43;14.80;;;6.53;;
50649;SDS011;36621;60.058;30.346;2023-07-31T19:06:15;12.70;;;5.57;;
50649;SDS011;36621;60.058;30.346;2023-07-31T19:22:49;8.02;;;5.22;;
50649;SDS011;36621;60.058;30.346;2023-07-31T19:30:47;8.87;;;6.00;;
50649;SDS011;36621;60.058;30.346;2023-07-31T19:38:32;8.95;;;5.65;;
50649;SDS011;36621;60.058;30.346;2023-07-31T19:46:05;5.97;;;4.82;;
50649;SDS011;36621;60.058;30.346;2023-07-31T19:53:39;7.95;;;4.50;;
50649;SDS011;36621;60.058;30.346;2023-07-31T20:01:11;5.30;;;4.80;;
50649;SDS011;36621;60.058;30.346;2023-07-31T20:08:44;8.00;;;5.53;;
50649;SDS011;36621;60.058;30.346;2023-07-31T20:16:16;7.78;;;5.22;;
50649;SDS011;36621;60.058;30.346;2023-07-31T20:23:50;7.60;;;5.60;;
50649;SDS011;36621;60.058;30.346;2023-07-31T20:31:22;13.10;;;6.00;;
50649;SDS011;36621;60.058;30.346;2023-07-31T20:38:55;10.85;;;5.97;;
50649;SDS011;36621;60.058;30.346;2023-07-31T20:46:27;8.93;;;5.68;;
50649;SDS011;36621;60.058;30.346;2023-07-31T20:54:00;10.10;;;6.40;;
50649;SDS011;36621;60.058;30.346;2023-07-31T21:01:32;9.27;;;5.93;;
50649;SDS011;36621;60.058;30.346;2023-07-31T21:09:05;10.70;;;7.10;;
50649;SDS011;36621;60.058;30.346;2023-07-31T21:16:37;12.13;;;8.57;;
50649;SDS011;36621;60.058;30.346;2023-07-31T21:24:10;15.00;;;9.55;;
50649;SDS011;36621;60.058;30.346;2023-07-31T21:31:42;12.80;;;10.60;;
50649;SDS011;36621;60.058;30.346;2023-07-31T21:39:14;13.77;;;9.60;;
50649;SDS011;36621;60.058;30.346;2023-07-31T21:46:47;12.57;;;10.98;;
50649;SDS011;36621;60.058;30.346;2023-07-31T21:54:19;17.45;;;13.68;;
50649;SDS011;36621;60.058;30.346;2023-07-31T22:01:51;18.02;;;16.05;;
50649;SDS011;36621;60.058;30.346;2023-07-31T22:09:24;19.75;;;15.88;;
50649;SDS011;36621;60.058;30.346;2023-07-31T22:16:56;17.73;;;15.32;;
50649;SDS011;36621;60.058;30.346;2023-07-31T22:24:29;22.98;;;15.65;;
50649;SDS011;36621;60.058;30.346;2023-07-31T22:32:01;18.73;;;14.35;;
50649;SDS011;36621;60.058;30.346;2023-07-31T22:39:34;15.63;;;14.02;;
50649;SDS011;36621;60.058;30.346;2023-07-31T22:47:07;16.92;;;13.13;;
50649;SDS011;36621;60.058;30.346;2023-07-31T22:54:39;14.77;;;13.20;;
50649;SDS011;36621;60.058;30.346;2023-07-31T23:02:12;15.20;;;12.00;;
50649;SDS011;36621;60.058;30.346;2023-07-31T23:09:45;13.23;;;11.82;;
50649;SDS011;36621;60.058;30.346;2023-07-31T23:17:17;13.55;;;11.98;;
50649;SDS011;36621;60.058;30.346;2023-07-31T23:24:51;13.27;;;11.38;;
50649;SDS011;36621;60.058;30.346;2023-07-31T23:32:23;14.23;;;11.88;;
50649;SDS011;36621;60.058;30.346;2023-07-31T23:39:56;13.68;;;11.75;;
50649;SDS011;36621;60.058;30.346;2023-07-31T23:47:28;13.45;;;12.05;;
50649;SDS011;36621;60.058;30.346;2023-07-31T23:55:01;14.52;;;12.02;;
